Terminal Aerodrome Forecast
Issued by NWS

Home | Current Version | Previous Version | Text Only | Print | Product List | Glossary On
Versions: 1 2 3 4 5 6 7 8 9 10 11 12 13 14 15 16 17 18 19 20 21 22 23 24 25 26 27 28 29 30 31 32 33 34 35 36 37 38 39 40 41 42
000
FTUS43 KGRB 250739 AAA
TAFATW
TAF AMD
KATW 250739Z 2508/2606 30010G17KT P6SM SCT030
      TEMPO 2508/2512 BKN030
     FM251400 30014G24KT P6SM BKN035
     FM251800 30012G20KT P6SM SCT040
     FM252200 31007KT P6SM SKC=

USA.gov is the U.S. government's official web portal to all federal, state and local government web resources and services.